Time;durP1;ratioP1;P1;durP2;ratioP2;P2;SDS_P1;SDS_P2;PMS_P1;PMS_P2;Temp;Humidity;BMP_temperature;BMP_pressure;BME280_temperature;BME280_humidity;BME280_pressure;Samples;Min_cycle;Max_cycle;Signal;HPM_P1;HPM_P2
2023/12/10 00:00:24;;;;;;;14.93;12.43;;;8.10;99.90;;;;;;5059067;28;20285;-72
2023/12/10 00:02:51;;;;;;;18.10;13.52;;;8.10;99.90;;;;;;5050459;28;20280;-72
2023/12/10 00:05:19;;;;;;;19.20;12.15;;;8.10;99.90;;;;;;5059402;28;20200;-71
2023/12/10 00:07:46;;;;;;;13.07;9.95;;;8.10;99.90;;;;;;5054600;28;20211;-73
2023/12/10 00:10:13;;;;;;;13.93;9.95;;;8.20;99.90;;;;;;5053130;28;20226;-69
2023/12/10 00:12:42;;;;;;;17.05;11.70;;;8.20;99.90;;;;;;5048690;28;20262;-69
2023/12/10 00:15:10;;;;;;;17.67;12.35;;;8.40;99.90;;;;;;5051434;28;20208;-70
2023/12/10 00:17:37;;;;;;;18.52;10.95;;;8.40;99.90;;;;;;5049491;28;20207;-72
2023/12/10 00:20:05;;;;;;;19.98;10.80;;;8.40;99.90;;;;;;5058905;28;20716;-69
2023/12/10 00:22:32;;;;;;;17.52;9.63;;;8.50;99.90;;;;;;5045420;28;20223;-70
2023/12/10 00:24:59;;;;;;;14.00;8.80;;;8.60;99.90;;;;;;5051039;28;20213;-70
2023/12/10 00:27:26;;;;;;;15.65;8.43;;;8.60;99.90;;;;;;5052966;28;20615;-70
2023/12/10 00:29:55;;;;;;;14.82;8.93;;;8.60;99.90;;;;;;5048129;28;20228;-71
2023/12/10 00:32:22;;;;;;;22.55;9.77;;;8.60;99.90;;;;;;5057629;28;20234;-73
2023/12/10 00:34:49;;;;;;;19.30;9.50;;;8.70;99.90;;;;;;5042281;28;20684;-71
2023/12/10 00:37:16;;;;;;;15.15;7.95;;;8.80;99.90;;;;;;5053298;28;20208;-72
2023/12/10 00:39:43;;;;;;;15.70;8.25;;;8.80;99.90;;;;;;5042233;28;20199;-70
2023/12/10 00:42:10;;;;;;;23.13;10.02;;;8.80;99.90;;;;;;5056792;28;20222;-73
2023/12/10 00:44:37;;;;;;;21.55;7.88;;;8.80;99.90;;;;;;5048931;28;20277;-74
2023/12/10 00:47:06;;;;;;;20.58;9.80;;;8.90;99.90;;;;;;5052171;28;20195;-72
2023/12/10 00:49:33;;;;;;;16.63;8.43;;;8.90;99.90;;;;;;5050651;28;20212;-72
2023/12/10 00:52:00;;;;;;;23.92;8.88;;;8.90;99.90;;;;;;5048142;28;20204;-73
2023/12/10 00:54:29;;;;;;;31.45;10.60;;;8.90;99.90;;;;;;5047312;28;20688;-72
2023/12/10 00:56:56;;;;;;;18.20;7.45;;;8.90;99.90;;;;;;5048209;28;20196;-72
2023/12/10 00:59:23;;;;;;;25.40;7.88;;;8.90;99.90;;;;;;5050778;28;20674;-75
2023/12/10 01:01:51;;;;;;;21.65;8.07;;;9.00;99.90;;;;;;5044711;28;20276;-73
2023/12/10 01:04:22;;;;;;;23.67;8.38;;;8.90;99.90;;;;;;5052418;28;20207;-73
2023/12/10 01:06:49;;;;;;;19.02;6.15;;;8.90;99.90;;;;;;5047175;28;20562;-72
2023/12/10 01:09:16;;;;;;;30.02;8.95;;;8.90;99.90;;;;;;5051052;28;20238;-73
2023/12/10 01:11:45;;;;;;;31.77;7.80;;;8.90;99.90;;;;;;5045520;28;20231;-73
2023/12/10 01:14:12;;;;;;;21.08;6.03;;;8.90;99.90;;;;;;5051289;28;20539;-73
2023/12/10 01:16:41;;;;;;;22.88;6.43;;;8.90;99.90;;;;;;5052013;28;20207;-70
2023/12/10 01:19:08;;;;;;;18.35;7.28;;;8.90;99.90;;;;;;5046833;28;20233;-72
2023/12/10 01:21:37;;;;;;;24.98;7.97;;;9.00;99.90;;;;;;5047126;28;20594;-72
2023/12/10 01:24:06;;;;;;;33.42;6.07;;;9.00;99.90;;;;;;5052525;28;20244;-71
2023/12/10 01:26:33;;;;;;;28.98;7.03;;;9.00;99.90;;;;;;5049996;28;20204;-73
2023/12/10 01:29:00;;;;;;;31.50;7.95;;;9.00;99.90;;;;;;5051912;28;20782;-71
2023/12/10 01:31:34;;;;;;;25.83;5.60;;;8.90;99.90;;;;;;5041853;28;20228;-73
2023/12/10 01:34:01;;;;;;;40.00;6.78;;;9.00;99.90;;;;;;5047119;28;20291;-69
2023/12/10 01:36:28;;;;;;;23.48;7.00;;;8.90;99.90;;;;;;5051229;28;20234;-72
2023/12/10 01:38:57;;;;;;;19.67;5.60;;;8.90;99.90;;;;;;5051085;28;20607;-70
2023/12/10 01:41:25;;;;;;;21.10;5.72;;;8.90;99.90;;;;;;5048149;28;20277;-73
2023/12/10 01:43:53;;;;;;;25.95;6.30;;;8.90;99.90;;;;;;5055472;28;20280;-71
2023/12/10 01:46:21;;;;;;;25.70;5.90;;;8.90;99.90;;;;;;5048280;28;20207;-72
2023/12/10 01:48:51;;;;;;;26.38;6.18;;;8.90;99.90;;;;;;5053177;28;20203;-72
2023/12/10 01:51:18;;;;;;;24.10;5.53;;;8.90;99.90;;;;;;5054869;28;20413;-69
2023/12/10 01:53:45;;;;;;;25.08;5.65;;;8.90;99.90;;;;;;5048909;28;20557;-70
2023/12/10 01:56:14;;;;;;;30.52;7.10;;;8.90;99.90;;;;;;5050863;28;20201;-69
2023/12/10 01:58:41;;;;;;;18.92;4.47;;;8.90;99.90;;;;;;5046495;28;20199;-73
2023/12/10 02:01:08;;;;;;;23.02;5.13;;;8.90;99.90;;;;;;5051159;28;20232;-73
2023/12/10 02:03:35;;;;;;;20.90;7.53;;;9.00;99.90;;;;;;5042431;28;20232;-71
2023/12/10 02:06:03;;;;;;;20.77;6.80;;;9.00;99.90;;;;;;5037562;28;20204;-73
2023/12/10 02:08:31;;;;;;;20.80;5.85;;;9.00;99.90;;;;;;5041799;28;20208;-74
2023/12/10 02:10:59;;;;;;;24.73;5.63;;;9.10;99.90;;;;;;5045558;28;20274;-72
2023/12/10 02:13:28;;;;;;;20.77;5.15;;;9.10;99.90;;;;;;5043983;28;20659;-70
2023/12/10 02:15:55;;;;;;;20.65;6.15;;;9.00;99.90;;;;;;5039533;28;20674;-68
2023/12/10 02:18:22;;;;;;;26.17;4.85;;;9.00;99.90;;;;;;5045582;28;20299;-72
2023/12/10 02:20:58;;;;;;;23.65;5.55;;;9.00;99.90;;;;;;5059010;28;20289;-70
2023/12/10 02:23:34;;;;;;;23.08;5.47;;;9.00;99.90;;;;;;5054867;28;20223;-72
2023/12/10 02:26:03;;;;;;;23.52;5.40;;;9.00;99.90;;;;;;5050462;28;20545;-74
2023/12/10 02:28:30;;;;;;;30.27;7.00;;;9.00;99.90;;;;;;5043316;28;20204;-71
2023/12/10 02:30:57;;;;;;;22.77;7.97;;;8.90;99.90;;;;;;5053610;28;20226;-72
2023/12/10 02:33:25;;;;;;;23.23;6.15;;;9.00;99.90;;;;;;5043729;28;20193;-72
2023/12/10 02:35:52;;;;;;;21.90;6.65;;;8.90;99.90;;;;;;5043135;28;20288;-72
2023/12/10 02:38:21;;;;;;;17.05;4.97;;;8.90;99.90;;;;;;5050397;28;20197;-72
2023/12/10 02:40:49;;;;;;;36.83;6.47;;;8.90;99.90;;;;;;5048930;28;20239;-72
2023/12/10 02:43:19;;;;;;;34.75;7.20;;;8.90;99.90;;;;;;5035041;28;20224;-72
2023/12/10 02:45:46;;;;;;;25.23;6.38;;;8.80;99.90;;;;;;5039986;28;20254;-73
2023/12/10 02:48:13;;;;;;;30.52;7.47;;;8.90;99.90;;;;;;5053571;28;20266;-72
2023/12/10 02:50:40;;;;;;;24.63;5.60;;;8.80;99.90;;;;;;5053986;28;20235;-71
2023/12/10 02:53:07;;;;;;;47.38;6.45;;;8.80;99.90;;;;;;5058023;28;20200;-71
2023/12/10 02:55:34;;;;;;;21.35;5.45;;;8.90;99.90;;;;;;5047487;28;20597;-70
2023/12/10 02:58:01;;;;;;;25.67;6.32;;;8.90;99.90;;;;;;5060815;28;20667;-69
2023/12/10 03:00:30;;;;;;;20.10;5.70;;;8.90;99.90;;;;;;5053190;28;20766;-71
2023/12/10 03:02:57;;;;;;;22.73;5.65;;;9.00;99.90;;;;;;5048978;28;20255;-71
2023/12/10 03:05:24;;;;;;;28.65;6.25;;;9.00;99.90;;;;;;5055646;28;20264;-68
2023/12/10 03:07:51;;;;;;;30.65;8.25;;;9.00;99.90;;;;;;5048571;28;20215;-73
2023/12/10 03:10:18;;;;;;;20.75;5.15;;;9.00;99.90;;;;;;5050661;28;20230;-73
2023/12/10 03:12:45;;;;;;;28.45;7.15;;;9.00;99.90;;;;;;5053885;28;20207;-71
2023/12/10 03:15:13;;;;;;;20.33;6.85;;;9.00;99.90;;;;;;5050663;28;20351;-69
2023/12/10 03:17:41;;;;;;;29.38;4.97;;;9.00;99.90;;;;;;5049178;28;20657;-71
2023/12/10 03:20:09;;;;;;;15.05;4.47;;;8.90;99.90;;;;;;5056430;28;20235;-69
2023/12/10 03:22:36;;;;;;;20.35;5.13;;;8.90;99.90;;;;;;5042715;28;20220;-68
2023/12/10 03:25:03;;;;;;;21.30;4.72;;;8.90;99.90;;;;;;5062247;28;20191;-72
2023/12/10 03:27:30;;;;;;;19.25;5.07;;;8.80;99.90;;;;;;5050071;28;20264;-71
2023/12/10 03:29:58;;;;;;;23.83;5.32;;;8.80;99.90;;;;;;5056032;28;20221;-69
2023/12/10 03:32:25;;;;;;;14.18;4.10;;;8.70;99.90;;;;;;5058348;28;20256;-71
2023/12/10 03:34:53;;;;;;;15.75;4.65;;;8.80;99.90;;;;;;5051170;28;20229;-72
2023/12/10 03:37:21;;;;;;;22.77;5.78;;;8.70;99.90;;;;;;5058556;28;20202;-73
2023/12/10 03:39:48;;;;;;;17.65;5.35;;;8.70;99.90;;;;;;5060626;28;20192;-72
2023/12/10 03:42:15;;;;;;;23.45;5.18;;;8.80;99.90;;;;;;5047206;28;20289;-69
2023/12/10 03:44:42;;;;;;;24.25;5.15;;;8.70;99.90;;;;;;5044926;28;20262;-71
2023/12/10 03:47:09;;;;;;;32.22;5.13;;;8.80;99.90;;;;;;5048385;28;20197;-69
2023/12/10 03:49:36;;;;;;;21.65;4.57;;;8.80;99.90;;;;;;5044593;28;20210;-67
2023/12/10 03:52:05;;;;;;;24.38;5.55;;;8.80;99.90;;;;;;5048267;28;20208;-73
2023/12/10 03:54:33;;;;;;;26.33;6.50;;;8.80;99.90;;;;;;5049835;28;20264;-71
2023/12/10 03:57:00;;;;;;;14.52;4.80;;;8.80;99.90;;;;;;5060668;28;20211;-71
2023/12/10 03:59:27;;;;;;;24.63;5.82;;;8.90;99.90;;;;;;5047474;28;20601;-72
2023/12/10 04:01:54;;;;;;;26.08;6.88;;;8.80;99.90;;;;;;5044922;28;20218;-72
2023/12/10 04:04:21;;;;;;;17.08;5.18;;;8.90;99.90;;;;;;5054864;28;20215;-71
2023/12/10 04:06:48;;;;;;;30.65;5.13;;;8.90;99.90;;;;;;5054206;28;20203;-72
2023/12/10 04:09:16;;;;;;;31.60;6.30;;;8.90;99.90;;;;;;5047695;28;20705;-69
2023/12/10 04:11:43;;;;;;;21.40;4.95;;;8.80;99.90;;;;;;5052237;28;20693;-71
2023/12/10 04:14:10;;;;;;;28.40;5.70;;;8.80;99.90;;;;;;5052705;28;20204;-72
2023/12/10 04:16:38;;;;;;;17.55;5.68;;;8.70;99.90;;;;;;5042834;28;20675;-68
2023/12/10 04:19:05;;;;;;;20.10;4.78;;;8.80;99.90;;;;;;5044897;28;20263;-72
2023/12/10 04:21:32;;;;;;;24.90;6.75;;;8.80;99.90;;;;;;5053032;28;20237;-72
2023/12/10 04:23:59;;;;;;;26.85;5.75;;;8.90;99.90;;;;;;5050690;28;20224;-74
2023/12/10 04:26:28;;;;;;;27.75;7.60;;;8.90;99.90;;;;;;5052258;28;20257;-69
2023/12/10 04:28:55;;;;;;;13.98;4.63;;;8.90;99.90;;;;;;5044064;28;20202;-70
2023/12/10 04:31:21;;;;;;;20.33;3.72;;;9.00;99.90;;;;;;5044223;28;20238;-73
2023/12/10 04:33:50;;;;;;;19.55;4.80;;;9.00;99.90;;;;;;5048751;28;20215;-70
2023/12/10 04:36:17;;;;;;;14.20;4.05;;;8.90;99.90;;;;;;5052723;28;20257;-71
2023/12/10 04:38:44;;;;;;;11.95;3.65;;;8.90;99.90;;;;;;5056267;28;20208;-69
2023/12/10 04:41:11;;;;;;;21.67;4.28;;;8.90;99.90;;;;;;5043094;28;20702;-73
2023/12/10 04:43:39;;;;;;;19.33;4.78;;;8.80;99.90;;;;;;5041520;28;20235;-73
2023/12/10 04:46:07;;;;;;;15.68;4.60;;;8.80;99.90;;;;;;5039793;28;20635;-73
2023/12/10 04:48:34;;;;;;;20.48;5.57;;;8.70;99.90;;;;;;5046421;28;20265;-72
2023/12/10 04:51:01;;;;;;;13.15;5.35;;;8.70;99.90;;;;;;5044737;28;20286;-72
2023/12/10 04:53:28;;;;;;;14.63;4.40;;;8.70;99.90;;;;;;5052895;28;20207;-70
2023/12/10 04:55:55;;;;;;;15.05;4.63;;;8.70;99.90;;;;;;5050831;28;20205;-71
2023/12/10 04:58:22;;;;;;;18.25;4.25;;;8.70;99.90;;;;;;5053331;28;20208;-71
2023/12/10 05:00:50;;;;;;;16.92;5.07;;;8.80;99.90;;;;;;5046068;28;20286;-72
2023/12/10 05:03:17;;;;;;;17.83;3.75;;;8.70;99.90;;;;;;5039659;28;20270;-68
2023/12/10 05:05:44;;;;;;;15.50;3.75;;;8.80;99.90;;;;;;5051028;28;20220;-71
2023/12/10 05:08:12;;;;;;;20.83;5.03;;;8.70;99.90;;;;;;5045474;28;20289;-69
2023/12/10 05:10:39;;;;;;;14.50;4.50;;;8.80;99.90;;;;;;5045951;28;20258;-70
2023/12/10 05:13:06;;;;;;;20.45;3.38;;;8.80;99.90;;;;;;5048721;28;20255;-69
2023/12/10 05:15:34;;;;;;;15.60;4.65;;;8.70;99.90;;;;;;5055768;28;20556;-72
2023/12/10 05:18:03;;;;;;;16.88;4.32;;;8.60;99.90;;;;;;5045916;28;20686;-69
2023/12/10 05:20:31;;;;;;;13.23;3.70;;;8.70;99.90;;;;;;5054075;28;20262;-71
2023/12/10 05:23:00;;;;;;;12.32;5.47;;;8.70;99.90;;;;;;5052435;28;20444;-68
2023/12/10 05:25:28;;;;;;;13.65;3.40;;;8.80;99.90;;;;;;5054274;28;20208;-70
2023/12/10 05:27:55;;;;;;;22.40;4.43;;;8.70;99.90;;;;;;5053566;28;20260;-71
2023/12/10 05:30:22;;;;;;;11.05;3.40;;;8.70;99.90;;;;;;5051099;28;20255;-67
2023/12/10 05:32:49;;;;;;;11.20;3.17;;;8.70;99.90;;;;;;5048043;28;20650;-68
2023/12/10 05:35:18;;;;;;;9.98;3.75;;;8.60;99.90;;;;;;5050223;28;20659;-69
2023/12/10 05:37:44;;;;;;;14.25;3.13;;;8.60;99.90;;;;;;5043898;28;20204;-71
2023/12/10 05:40:12;;;;;;;7.25;2.60;;;8.60;99.90;;;;;;5048497;28;20231;-71
2023/12/10 05:42:40;;;;;;;19.85;3.67;;;8.50;99.90;;;;;;5045278;28;20580;-68
2023/12/10 05:45:07;;;;;;;12.88;3.60;;;8.60;99.90;;;;;;5050201;28;20250;-71
2023/12/10 05:47:34;;;;;;;10.60;3.25;;;8.60;99.90;;;;;;5051676;28;20204;-71
2023/12/10 05:50:02;;;;;;;17.27;5.47;;;8.40;99.90;;;;;;5048510;28;20216;-72
2023/12/10 05:52:30;;;;;;;17.02;3.70;;;8.40;99.90;;;;;;5043917;28;20209;-74
2023/12/10 05:54:57;;;;;;;9.50;3.15;;;8.40;99.90;;;;;;5048774;28;20196;-69
2023/12/10 05:57:24;;;;;;;13.18;4.15;;;8.40;99.90;;;;;;5044676;28;20360;-68
2023/12/10 05:59:51;;;;;;;14.32;3.60;;;8.40;99.90;;;;;;5058472;28;20204;-69
2023/12/10 06:02:18;;;;;;;14.75;3.72;;;8.40;99.90;;;;;;5049766;28;20270;-71
2023/12/10 06:04:45;;;;;;;14.40;5.53;;;8.30;99.90;;;;;;5058126;28;20219;-73
2023/12/10 06:07:12;;;;;;;11.25;3.72;;;8.30;99.90;;;;;;5047683;28;20254;-73
2023/12/10 06:09:40;;;;;;;12.82;3.58;;;8.40;99.90;;;;;;5053356;28;20214;-68
2023/12/10 06:12:07;;;;;;;15.13;3.90;;;8.30;99.90;;;;;;5054454;28;20237;-74
2023/12/10 06:14:34;;;;;;;10.73;3.33;;;8.30;99.90;;;;;;5051780;28;20242;-70
2023/12/10 06:17:01;;;;;;;9.57;2.40;;;8.30;99.90;;;;;;5056302;28;20215;-70
2023/12/10 06:19:29;;;;;;;8.38;2.88;;;8.30;99.90;;;;;;5056687;28;20258;-74
2023/12/10 06:21:55;;;;;;;12.35;3.13;;;8.30;99.90;;;;;;5052333;28;20230;-71
2023/12/10 06:24:23;;;;;;;9.85;3.40;;;8.30;99.90;;;;;;5050690;28;20219;-71
2023/12/10 06:26:51;;;;;;;9.98;3.47;;;8.30;99.90;;;;;;5056538;28;20275;-72
2023/12/10 06:29:18;;;;;;;10.50;2.65;;;8.30;99.90;;;;;;5048921;28;20200;-73
2023/12/10 06:31:45;;;;;;;13.90;4.75;;;8.40;99.90;;;;;;5045537;28;20640;-70
2023/12/10 06:34:12;;;;;;;9.70;3.00;;;8.40;99.90;;;;;;5058488;28;20194;-71
2023/12/10 06:36:39;;;;;;;8.40;2.97;;;8.40;99.90;;;;;;5052599;28;20575;-70
2023/12/10 06:39:06;;;;;;;11.98;3.58;;;8.50;99.90;;;;;;5049778;28;21372;-71
2023/12/10 06:41:33;;;;;;;16.27;3.80;;;8.50;99.90;;;;;;5051439;28;20229;-71
2023/12/10 06:44:02;;;;;;;15.45;4.43;;;8.50;99.90;;;;;;5043853;28;20274;-71
2023/12/10 06:46:29;;;;;;;8.80;3.30;;;8.40;99.90;;;;;;5057164;28;20269;-71
2023/12/10 06:48:56;;;;;;;7.43;3.05;;;8.40;99.90;;;;;;5054799;28;20258;-70
2023/12/10 06:51:23;;;;;;;10.95;3.10;;;8.40;99.90;;;;;;5047089;28;20223;-69
2023/12/10 06:53:50;;;;;;;15.20;3.25;;;8.40;99.90;;;;;;5054004;28;20196;-70
2023/12/10 06:56:17;;;;;;;10.57;2.95;;;8.40;99.90;;;;;;5054856;28;20206;-68
2023/12/10 06:58:44;;;;;;;15.10;3.30;;;8.40;99.90;;;;;;5059276;28;20210;-71
2023/12/10 07:01:14;;;;;;;13.23;4.65;;;8.50;99.90;;;;;;5043195;28;20225;-68
2023/12/10 07:03:42;;;;;;;9.35;3.42;;;8.50;99.90;;;;;;5053105;28;20216;-69
2023/12/10 07:06:10;;;;;;;11.82;2.80;;;8.50;99.90;;;;;;5058288;28;20204;-67
2023/12/10 07:08:37;;;;;;;12.70;2.80;;;8.50;99.90;;;;;;5044306;28;20240;-70
2023/12/10 07:11:10;;;;;;;17.58;3.67;;;8.50;99.90;;;;;;5049421;28;20223;-70
2023/12/10 07:13:37;;;;;;;16.42;3.67;;;8.40;99.90;;;;;;5060888;28;20283;-72
2023/12/10 07:16:04;;;;;;;11.30;3.70;;;8.40;99.90;;;;;;5056905;28;20253;-70
2023/12/10 07:18:33;;;;;;;10.90;3.72;;;8.40;99.90;;;;;;5060260;28;20626;-70
2023/12/10 07:21:00;;;;;;;16.05;3.83;;;8.50;99.90;;;;;;5048024;28;20220;-70
2023/12/10 07:23:27;;;;;;;18.83;3.88;;;8.50;99.90;;;;;;5040648;28;20209;-70
2023/12/10 07:25:54;;;;;;;11.80;3.88;;;8.50;99.90;;;;;;5047572;28;20207;-69
2023/12/10 07:28:21;;;;;;;12.40;3.20;;;8.60;99.90;;;;;;5053948;28;20199;-70
2023/12/10 07:30:48;;;;;;;12.73;3.30;;;8.50;99.90;;;;;;5046651;28;20228;-68
2023/12/10 07:33:15;;;;;;;11.50;2.95;;;8.50;99.90;;;;;;5051343;28;20199;-74
2023/12/10 07:35:43;;;;;;;8.50;2.40;;;8.40;99.90;;;;;;5054823;28;20279;-68
2023/12/10 07:38:10;;;;;;;6.13;2.83;;;8.50;99.90;;;;;;5040327;28;20208;-69
2023/12/10 07:40:37;;;;;;;11.40;3.45;;;8.50;99.90;;;;;;5051333;28;20289;-71
2023/12/10 07:43:04;;;;;;;9.18;3.15;;;8.50;99.90;;;;;;5045234;28;20212;-69
2023/12/10 07:45:31;;;;;;;10.63;3.40;;;8.60;99.90;;;;;;5048123;28;20541;-72
2023/12/10 07:47:58;;;;;;;11.77;3.78;;;8.50;99.90;;;;;;5051712;28;20619;-72
2023/12/10 07:50:26;;;;;;;9.32;3.55;;;8.50;99.90;;;;;;5048502;28;20332;-70
2023/12/10 07:52:54;;;;;;;12.93;3.67;;;8.50;99.90;;;;;;5045183;28;20208;-72
2023/12/10 07:55:21;;;;;;;10.75;3.80;;;8.40;99.90;;;;;;5057704;28;20197;-73
2023/12/10 07:57:48;;;;;;;13.73;3.13;;;8.40;99.90;;;;;;5042971;28;20546;-72
2023/12/10 08:00:16;;;;;;;11.90;3.40;;;8.40;99.90;;;;;;5057268;28;20223;-72
2023/12/10 08:02:43;;;;;;;12.98;4.25;;;8.40;99.90;;;;;;5052708;28;20212;-74
2023/12/10 08:05:10;;;;;;;22.63;10.90;;;8.30;99.90;;;;;;5044332;28;20356;-72
2023/12/10 08:07:37;;;;;;;7.32;3.08;;;8.50;99.90;;;;;;5053606;28;20271;-69
2023/12/10 08:10:07;;;;;;;9.68;3.50;;;8.50;99.90;;;;;;5042677;28;20286;-70
2023/12/10 08:12:34;;;;;;;7.28;2.72;;;8.50;99.90;;;;;;5059846;28;20212;-72
2023/12/10 08:15:01;;;;;;;7.80;2.55;;;8.50;99.90;;;;;;5043921;28;20205;-70
2023/12/10 08:17:28;;;;;;;9.63;2.53;;;8.50;99.90;;;;;;5057449;28;20672;-71
2023/12/10 08:19:55;;;;;;;5.13;2.50;;;8.50;99.90;;;;;;5056046;28;20356;-72
2023/12/10 08:22:22;;;;;;;7.32;3.10;;;8.50;99.90;;;;;;5047089;28;20226;-72
2023/12/10 08:24:49;;;;;;;8.82;4.10;;;8.60;99.90;;;;;;5055016;28;20277;-71
2023/12/10 08:27:17;;;;;;;7.10;3.40;;;8.60;99.90;;;;;;5048797;28;20704;-72
2023/12/10 08:29:44;;;;;;;8.27;4.55;;;8.60;99.90;;;;;;5055977;28;20202;-74
2023/12/10 08:32:11;;;;;;;12.95;2.38;;;8.60;99.90;;;;;;5055576;28;20573;-69
2023/12/10 08:34:38;;;;;;;6.45;3.08;;;8.60;99.90;;;;;;5043255;28;20202;-70
2023/12/10 08:37:07;;;;;;;10.07;2.65;;;8.60;99.90;;;;;;5056709;28;20220;-73
2023/12/10 08:39:34;;;;;;;3.47;2.00;;;8.60;99.90;;;;;;5044357;28;20556;-70
2023/12/10 08:42:01;;;;;;;5.28;2.05;;;8.60;99.90;;;;;;5043154;28;20278;-73
2023/12/10 08:44:30;;;;;;;4.30;2.20;;;8.60;99.90;;;;;;5053947;28;20235;-69
2023/12/10 08:46:57;;;;;;;10.15;2.60;;;8.70;99.90;;;;;;5046164;28;20258;-71
2023/12/10 08:49:25;;;;;;;2.80;2.38;;;8.80;99.90;;;;;;5050442;28;20221;-72
2023/12/10 08:51:52;;;;;;;5.50;2.92;;;8.70;99.90;;;;;;5054589;28;20229;-70
2023/12/10 08:54:19;;;;;;;3.95;1.63;;;8.70;99.90;;;;;;5051531;28;20611;-70
2023/12/10 08:56:46;;;;;;;5.60;2.50;;;8.70;99.90;;;;;;5051441;28;20208;-72
2023/12/10 08:59:13;;;;;;;4.57;2.53;;;8.70;99.90;;;;;;5043525;28;20254;-73
2023/12/10 09:01:43;;;;;;;11.80;3.25;;;8.70;99.90;;;;;;5052282;28;20270;-72
2023/12/10 09:04:10;;;;;;;5.55;3.17;;;8.80;99.90;;;;;;5051041;28;20239;-74
2023/12/10 09:06:37;;;;;;;6.35;2.65;;;8.90;99.90;;;;;;5057131;28;20303;-74
2023/12/10 09:09:04;;;;;;;6.97;3.00;;;8.90;99.90;;;;;;5054228;28;20360;-74
2023/12/10 09:11:34;;;;;;;4.45;2.97;;;8.90;99.90;;;;;;5040835;28;20290;-72
2023/12/10 09:14:03;;;;;;;4.35;1.67;;;8.90;99.90;;;;;;5056602;28;20658;-74
2023/12/10 09:16:30;;;;;;;7.28;2.85;;;8.90;99.90;;;;;;5045472;28;20196;-72
2023/12/10 09:18:59;;;;;;;6.28;1.98;;;8.90;99.90;;;;;;5063282;28;20207;-76
2023/12/10 09:21:26;;;;;;;10.50;2.75;;;8.90;99.90;;;;;;5042159;28;20278;-70
2023/12/10 09:23:53;;;;;;;3.30;2.17;;;9.00;99.90;;;;;;5052950;28;20206;-71
2023/12/10 09:26:20;;;;;;;9.43;3.15;;;9.10;99.90;;;;;;5040349;28;20242;-71
2023/12/10 09:28:47;;;;;;;6.90;1.75;;;9.10;99.90;;;;;;5040195;28;20232;-71
2023/12/10 09:31:14;;;;;;;7.07;1.73;;;9.20;99.90;;;;;;5049987;28;20219;-74
2023/12/10 09:33:41;;;;;;;6.93;1.77;;;9.20;99.90;;;;;;5052725;28;20265;-70
2023/12/10 09:36:10;;;;;;;6.63;1.20;;;9.30;99.90;;;;;;5055445;28;20207;-71
2023/12/10 09:38:37;;;;;;;6.13;1.60;;;9.30;99.90;;;;;;5055146;28;20737;-74
2023/12/10 09:41:05;;;;;;;7.00;1.73;;;9.40;99.90;;;;;;5055149;28;20285;-72
2023/12/10 09:43:33;;;;;;;5.15;2.53;;;9.40;99.90;;;;;;5050238;28;20685;-71
2023/12/10 09:46:01;;;;;;;6.40;1.60;;;9.30;99.90;;;;;;5046604;28;20263;-72
2023/12/10 09:48:28;;;;;;;5.07;1.85;;;9.40;99.90;;;;;;5053567;28;20212;-71
2023/12/10 09:50:55;;;;;;;8.38;1.80;;;9.50;99.90;;;;;;5054899;28;20308;-74
2023/12/10 09:53:24;;;;;;;8.18;1.40;;;9.50;99.90;;;;;;5057132;28;20203;-75
2023/12/10 09:55:51;;;;;;;3.70;1.50;;;9.50;99.90;;;;;;5064212;28;20260;-71
2023/12/10 09:58:19;;;;;;;2.70;1.35;;;9.50;99.90;;;;;;5044738;28;20281;-70
2023/12/10 10:00:46;;;;;;;3.97;1.15;;;9.50;99.90;;;;;;5056436;28;20227;-74
2023/12/10 10:03:13;;;;;;;4.68;1.90;;;9.50;99.90;;;;;;5051292;28;20196;-71
2023/12/10 10:05:40;;;;;;;4.68;1.73;;;9.60;99.90;;;;;;5053989;28;20285;-69
2023/12/10 10:08:07;;;;;;;9.30;1.63;;;9.60;99.90;;;;;;5047987;28;20258;-74
2023/12/10 10:10:35;;;;;;;6.28;1.58;;;9.70;99.90;;;;;;5054911;28;20231;-71
2023/12/10 10:13:05;;;;;;;3.03;2.30;;;9.80;99.90;;;;;;5052598;28;20583;-73
2023/12/10 10:15:32;;;;;;;2.90;1.90;;;9.90;99.90;;;;;;5055338;28;20199;-70
2023/12/10 10:17:59;;;;;;;4.32;1.60;;;9.90;99.90;;;;;;5059732;28;20249;-71
2023/12/10 10:20:27;;;;;;;7.93;1.92;;;10.00;99.90;;;;;;5053636;28;20230;-71
2023/12/10 10:22:55;;;;;;;6.10;3.97;;;10.00;99.90;;;;;;5058792;28;20705;-73
2023/12/10 10:25:22;;;;;;;8.20;2.10;;;10.10;99.90;;;;;;5042511;28;20324;-71
2023/12/10 10:27:51;;;;;;;9.07;2.33;;;10.10;99.90;;;;;;5051569;28;20253;-70
2023/12/10 10:30:18;;;;;;;2.72;1.65;;;10.00;99.90;;;;;;5047550;28;20699;-74
2023/12/10 10:32:48;;;;;;;6.80;1.75;;;10.00;99.90;;;;;;5048933;28;20204;-75
2023/12/10 10:35:15;;;;;;;4.68;2.20;;;10.00;99.90;;;;;;5048343;28;20721;-72
2023/12/10 10:37:43;;;;;;;6.07;2.00;;;10.10;99.90;;;;;;5055627;28;20210;-71
2023/12/10 10:40:11;;;;;;;5.63;1.92;;;10.10;99.90;;;;;;5048352;28;20276;-71
2023/12/10 10:42:38;;;;;;;6.22;1.42;;;10.00;99.90;;;;;;5042716;28;20246;-72
2023/12/10 10:45:07;;;;;;;5.22;1.30;;;10.00;99.90;;;;;;5052237;28;20223;-72
2023/12/10 10:47:36;;;;;;;6.68;1.92;;;10.00;99.90;;;;;;5058626;28;20213;-72
2023/12/10 10:50:04;;;;;;;4.97;1.40;;;10.10;99.90;;;;;;5052722;28;20578;-73
2023/12/10 10:52:34;;;;;;;4.07;1.85;;;10.00;99.90;;;;;;5042584;28;20200;-71
2023/12/10 10:55:02;;;;;;;2.95;1.38;;;9.80;99.90;;;;;;5053297;28;20552;-69
2023/12/10 10:57:30;;;;;;;5.43;2.67;;;9.70;99.90;;;;;;5046113;28;20204;-71
2023/12/10 10:59:58;;;;;;;6.13;2.25;;;9.70;99.90;;;;;;5042767;28;20228;-76
2023/12/10 11:02:26;;;;;;;9.70;2.83;;;9.70;99.90;;;;;;5052545;28;20204;-73
2023/12/10 11:04:53;;;;;;;4.38;1.88;;;9.70;99.90;;;;;;5048980;28;20287;-70
2023/12/10 11:07:21;;;;;;;7.05;1.92;;;9.60;99.90;;;;;;5052266;28;20204;-70
2023/12/10 11:09:58;;;;;;;5.80;2.75;;;9.60;99.90;;;;;;5051866;28;20210;-73
2023/12/10 11:12:45;;;;;;;2.20;1.48;;;9.60;99.90;;;;;;5050628;28;20214;-74
2023/12/10 11:15:23;;;;;;;6.05;3.50;;;9.70;99.90;;;;;;5050389;28;20286;-73
2023/12/10 11:17:53;;;;;;;2.28;1.40;;;9.60;99.90;;;;;;5052057;28;20966;-72
2023/12/10 11:20:38;;;;;;;4.00;1.00;;;9.50;99.90;;;;;;5053999;28;20223;-74
2023/12/10 11:23:06;;;;;;;5.53;1.20;;;9.60;99.90;;;;;;5052357;28;20623;-73
2023/12/10 11:25:34;;;;;;;1.65;1.27;;;9.50;99.90;;;;;;5062183;28;20215;-73
2023/12/10 11:28:07;;;;;;;5.32;1.15;;;9.40;99.90;;;;;;5052420;28;20214;-74
2023/12/10 11:30:34;;;;;;;10.73;2.97;;;9.40;99.90;;;;;;5049736;28;20235;-74
2023/12/10 11:33:03;;;;;;;5.03;2.30;;;9.40;99.90;;;;;;5049155;28;20215;-74
2023/12/10 11:35:30;;;;;;;3.17;1.60;;;9.40;99.90;;;;;;5056754;28;20655;-75
2023/12/10 11:37:57;;;;;;;5.65;1.45;;;9.30;99.90;;;;;;5055113;28;20262;-73
2023/12/10 11:40:24;;;;;;;5.72;2.97;;;9.40;99.90;;;;;;5054130;28;20283;-74
2023/12/10 11:42:51;;;;;;;3.97;1.75;;;9.40;99.90;;;;;;5052752;28;20265;-72
2023/12/10 11:45:18;;;;;;;15.60;2.85;;;9.40;99.90;;;;;;5050981;28;20231;-72
2023/12/10 11:47:47;;;;;;;8.68;2.55;;;9.30;99.90;;;;;;5046993;28;20204;-72
2023/12/10 11:50:15;;;;;;;5.60;1.38;;;9.30;99.90;;;;;;5054311;28;20223;-69
2023/12/10 11:52:42;;;;;;;6.18;1.98;;;9.20;99.90;;;;;;5044892;28;20613;-70
2023/12/10 11:55:09;;;;;;;4.93;2.70;;;9.20;99.90;;;;;;5052964;28;20203;-74
2023/12/10 11:57:42;;;;;;;4.60;1.85;;;9.10;99.90;;;;;;5047086;28;20207;-73
2023/12/10 12:00:11;;;;;;;8.30;2.40;;;9.10;99.90;;;;;;5043225;28;20271;-75
2023/12/10 12:02:42;;;;;;;5.95;2.40;;;9.20;99.90;;;;;;5058283;28;20666;-72
2023/12/10 12:05:09;;;;;;;7.20;2.60;;;9.20;99.90;;;;;;5050187;28;20232;-74
2023/12/10 12:07:38;;;;;;;5.68;2.47;;;9.20;99.90;;;;;;5051390;28;20212;-72
2023/12/10 12:10:06;;;;;;;9.88;3.13;;;9.20;99.90;;;;;;5060515;28;20700;-74
2023/12/10 12:12:38;;;;;;;10.48;3.63;;;9.20;99.90;;;;;;5053309;28;20215;-74
2023/12/10 12:15:06;;;;;;;5.57;2.15;;;9.20;99.90;;;;;;5044643;28;20203;-76
2023/12/10 12:17:33;;;;;;;8.35;3.67;;;9.10;99.90;;;;;;5040095;28;20208;-76
2023/12/10 12:20:16;;;;;;;4.45;2.90;;;9.20;99.90;;;;;;5080205;27;20652;-72
2023/12/10 12:22:43;;;;;;;10.25;3.00;;;9.20;99.90;;;;;;5069644;28;20195;-73
2023/12/10 12:25:10;;;;;;;12.70;3.67;;;9.20;99.90;;;;;;5063434;28;20266;-73
2023/12/10 12:27:37;;;;;;;11.60;2.40;;;9.20;99.90;;;;;;5061810;28;20203;-73
2023/12/10 12:30:05;;;;;;;8.48;3.20;;;9.20;99.90;;;;;;5067226;28;20220;-72
2023/12/10 12:32:32;;;;;;;9.55;3.95;;;9.20;99.90;;;;;;5069789;28;20253;-73
2023/12/10 12:35:00;;;;;;;12.23;3.70;;;9.20;99.90;;;;;;5064295;28;20631;-70
2023/12/10 12:37:29;;;;;;;13.20;3.90;;;9.10;99.90;;;;;;5072101;28;20257;-75
2023/12/10 12:39:56;;;;;;;13.32;5.25;;;9.20;99.90;;;;;;5062503;28;20318;-75
2023/12/10 12:42:24;;;;;;;13.35;4.00;;;9.20;99.90;;;;;;5071400;28;20265;-72
2023/12/10 12:44:51;;;;;;;10.05;3.38;;;9.20;99.90;;;;;;5068384;28;20200;-75
2023/12/10 12:47:18;;;;;;;14.27;3.33;;;9.20;99.90;;;;;;5063924;28;20218;-74
2023/12/10 12:49:45;;;;;;;8.27;2.65;;;9.20;99.90;;;;;;5066068;28;20212;-74
2023/12/10 12:52:14;;;;;;;11.25;4.82;;;9.20;99.90;;;;;;5070436;28;20207;-71